Time;durP1;ratioP1;P1;durP2;ratioP2;P2;SDS_P1;SDS_P2;PMS_P1;PMS_P2;Temp;Humidity;BMP_temperature;BMP_pressure;BME280_temperature;BME280_humidity;BME280_pressure;Samples;Min_cycle;Max_cycle;Signal;HPM_P1;HPM_P2
2021/06/27 00:01:18;;;;;;;0.50;0.40;;;17.90;99.90;;;;;;5015660;28;20530;-80
2021/06/27 00:03:45;;;;;;;0.50;0.30;;;17.90;99.90;;;;;;5015830;28;20441;-79
2021/06/27 00:06:12;;;;;;;0.50;0.30;;;17.90;99.90;;;;;;5016177;28;20481;-78
2021/06/27 00:08:40;;;;;;;3.07;2.23;;;17.90;99.90;;;;;;5015553;28;20445;-79
2021/06/27 00:11:08;;;;;;;0.50;0.30;;;18.00;99.90;;;;;;5016388;28;20445;-79
2021/06/27 00:13:36;;;;;;;0.50;0.30;;;17.90;99.90;;;;;;5016438;28;20453;-80
2021/06/27 00:16:05;;;;;;;0.50;0.30;;;17.90;99.90;;;;;;5015876;28;20448;-80
2021/06/27 00:18:32;;;;;;;0.50;0.30;;;17.90;99.90;;;;;;5014817;28;20442;-81
2021/06/27 00:21:01;;;;;;;0.50;0.30;;;17.90;99.90;;;;;;5015892;28;20449;-82
2021/06/27 00:23:31;;;;;;;0.50;0.33;;;17.90;99.90;;;;;;5015890;28;20465;-82
2021/06/27 00:26:00;;;;;;;0.50;0.37;;;17.90;99.90;;;;;;5015473;28;20943;-81
2021/06/27 00:28:28;;;;;;;2.10;0.93;;;17.90;99.90;;;;;;5015473;28;20448;-80
2021/06/27 00:30:55;;;;;;;0.50;0.30;;;17.80;99.90;;;;;;5016615;28;20452;-83
2021/06/27 00:33:23;;;;;;;0.50;0.30;;;17.80;99.90;;;;;;5014998;28;20479;-82
2021/06/27 00:35:50;;;;;;;0.50;0.30;;;17.80;99.90;;;;;;5015839;28;20441;-80
2021/06/27 00:38:17;;;;;;;0.50;0.33;;;17.80;99.90;;;;;;5015534;28;20443;-80
2021/06/27 00:40:45;;;;;;;0.50;0.40;;;17.80;99.90;;;;;;5016441;28;20442;-82
2021/06/27 00:43:13;;;;;;;0.50;0.30;;;17.90;99.90;;;;;;5016242;28;20465;-81
2021/06/27 00:45:41;;;;;;;3.30;1.53;;;17.90;99.90;;;;;;5016298;28;20457;-81
2021/06/27 00:48:08;;;;;;;0.50;0.40;;;17.90;99.90;;;;;;5015127;28;20483;-81
2021/06/27 00:50:39;;;;;;;0.50;0.30;;;17.90;99.90;;;;;;5015626;28;20440;-81
2021/06/27 00:53:06;;;;;;;0.50;0.40;;;17.90;99.90;;;;;;5016393;28;20830;-81
2021/06/27 00:55:34;;;;;;;0.50;0.30;;;17.90;99.90;;;;;;5015609;28;21280;-83
2021/06/27 00:58:01;;;;;;;0.50;0.50;;;18.00;99.90;;;;;;5015219;28;20472;-81
2021/06/27 01:00:32;;;;;;;0.60;0.50;;;18.00;99.90;;;;;;5015923;28;20435;-81
2021/06/27 01:03:00;;;;;;;0.50;0.40;;;18.00;99.90;;;;;;5015589;28;20534;-81
2021/06/27 01:05:29;;;;;;;0.87;0.87;;;18.00;99.90;;;;;;5015655;28;20448;-80
2021/06/27 01:07:57;;;;;;;0.50;0.30;;;18.00;99.90;;;;;;5015910;28;20477;-82
2021/06/27 01:10:24;;;;;;;0.50;0.30;;;17.90;99.90;;;;;;5015710;28;20453;-81
2021/06/27 01:12:51;;;;;;;1.13;1.03;;;17.80;99.90;;;;;;5017253;28;20472;-80
2021/06/27 01:15:18;;;;;;;0.50;0.40;;;17.70;99.90;;;;;;5019291;28;20477;-82
2021/06/27 01:17:48;;;;;;;0.53;0.53;;;17.70;99.90;;;;;;5018472;28;20433;-81
2021/06/27 01:20:17;;;;;;;0.50;0.30;;;17.70;99.90;;;;;;5019527;28;20442;-81
2021/06/27 01:22:45;;;;;;;0.50;0.40;;;17.70;99.90;;;;;;5019606;28;20457;-81
2021/06/27 01:25:14;;;;;;;0.97;0.87;;;17.70;99.90;;;;;;5019065;28;20450;-78
2021/06/27 01:27:41;;;;;;;0.50;0.30;;;17.70;99.90;;;;;;5019655;28;20567;-81
2021/06/27 01:30:10;;;;;;;0.50;0.40;;;17.70;99.90;;;;;;5019265;28;20456;-82
2021/06/27 01:32:39;;;;;;;0.50;0.30;;;17.60;99.90;;;;;;5018652;28;20466;-82
2021/06/27 01:35:08;;;;;;;0.50;0.30;;;17.60;99.90;;;;;;5018891;28;20447;-81
2021/06/27 01:37:35;;;;;;;0.60;0.60;;;17.50;99.90;;;;;;5017856;28;20440;-81
2021/06/27 01:40:05;;;;;;;0.50;0.30;;;17.50;99.90;;;;;;5018793;28;20438;-81
2021/06/27 01:42:31;;;;;;;0.50;0.30;;;17.50;99.90;;;;;;5018961;28;20466;-82
2021/06/27 01:44:58;;;;;;;0.60;0.50;;;17.40;99.90;;;;;;5018318;28;20521;-81
2021/06/27 01:47:28;;;;;;;0.50;0.30;;;17.40;99.90;;;;;;5018172;28;20708;-81
2021/06/27 01:49:55;;;;;;;0.50;0.33;;;17.30;99.90;;;;;;5019246;28;20434;-82
2021/06/27 01:52:22;;;;;;;0.50;0.40;;;17.30;99.90;;;;;;5019231;28;20470;-81
2021/06/27 01:54:48;;;;;;;0.63;0.60;;;17.20;99.90;;;;;;5019200;28;20840;-81
2021/06/27 01:57:20;;;;;;;0.50;0.30;;;17.10;99.90;;;;;;5018388;28;20443;-77
2021/06/27 01:59:48;;;;;;;0.50;0.40;;;17.10;99.90;;;;;;5019283;28;20425;-81
2021/06/27 02:02:15;;;;;;;0.50;0.40;;;17.10;99.90;;;;;;5018282;28;20473;-81
2021/06/27 02:04:42;;;;;;;0.50;0.40;;;17.10;99.90;;;;;;5018194;28;20431;-81
2021/06/27 02:07:09;;;;;;;1.63;1.53;;;17.20;99.90;;;;;;5018359;28;20482;-82
2021/06/27 02:09:35;;;;;;;0.50;0.40;;;17.20;99.90;;;;;;5018168;28;20466;-81
2021/06/27 02:12:03;;;;;;;0.80;0.80;;;17.20;99.90;;;;;;5019039;28;20459;-81
2021/06/27 02:14:31;;;;;;;0.50;0.40;;;17.10;99.90;;;;;;5018656;28;20447;-81
2021/06/27 02:16:57;;;;;;;0.50;0.40;;;17.00;99.90;;;;;;5017937;28;20943;-81
2021/06/27 02:19:24;;;;;;;0.50;0.30;;;17.00;99.90;;;;;;5017961;28;20449;-82
2021/06/27 02:21:51;;;;;;;0.50;0.40;;;16.90;99.90;;;;;;5017796;28;20466;-82
2021/06/27 02:24:17;;;;;;;0.57;0.50;;;16.90;99.90;;;;;;5018954;28;20447;-82
2021/06/27 02:26:44;;;;;;;0.50;0.40;;;16.80;99.90;;;;;;5018524;28;20449;-81
2021/06/27 02:29:11;;;;;;;0.70;0.70;;;16.80;99.90;;;;;;5017598;28;20446;-81
2021/06/27 02:31:39;;;;;;;0.50;0.40;;;16.70;99.90;;;;;;5017706;28;20478;-82
2021/06/27 02:34:07;;;;;;;0.50;0.40;;;16.70;99.90;;;;;;5017126;28;20441;-82
2021/06/27 02:36:34;;;;;;;0.50;0.37;;;16.60;99.90;;;;;;5017991;28;20468;-80
2021/06/27 02:39:00;;;;;;;0.50;0.30;;;16.50;99.90;;;;;;5017514;28;20449;-81
2021/06/27 02:41:27;;;;;;;0.50;0.40;;;16.40;99.90;;;;;;5017796;28;20459;-82
2021/06/27 02:43:54;;;;;;;0.50;0.40;;;16.40;99.90;;;;;;5017430;28;20449;-82
2021/06/27 02:46:20;;;;;;;0.50;0.40;;;16.40;99.90;;;;;;5017508;28;20431;-80
2021/06/27 02:48:48;;;;;;;0.50;0.40;;;16.40;99.90;;;;;;5017240;28;20502;-81
2021/06/27 02:51:15;;;;;;;0.50;0.33;;;16.40;99.90;;;;;;5017686;28;20467;-82
2021/06/27 02:53:42;;;;;;;0.50;0.40;;;16.40;99.90;;;;;;5017542;28;20451;-81
2021/06/27 02:56:09;;;;;;;0.50;0.40;;;16.50;99.90;;;;;;5017496;28;20448;-81
2021/06/27 02:58:37;;;;;;;0.50;0.40;;;16.50;99.90;;;;;;5016552;28;20435;-79
2021/06/27 03:01:05;;;;;;;0.50;0.30;;;16.50;99.90;;;;;;5017411;28;20452;-80
2021/06/27 03:03:32;;;;;;;0.50;0.40;;;16.50;99.90;;;;;;5016168;28;20949;-82
2021/06/27 03:06:00;;;;;;;0.50;0.30;;;16.50;99.90;;;;;;5016560;28;20446;-80
2021/06/27 03:08:27;;;;;;;0.50;0.40;;;16.50;99.90;;;;;;5016686;28;20483;-81
2021/06/27 03:10:54;;;;;;;0.50;0.33;;;16.50;99.90;;;;;;5016993;28;20798;-80
2021/06/27 03:13:21;;;;;;;0.50;0.40;;;16.40;99.90;;;;;;5016599;28;20992;-81
2021/06/27 03:15:47;;;;;;;0.50;0.40;;;16.40;99.90;;;;;;5016903;28;20441;-80
2021/06/27 03:18:14;;;;;;;6.00;0.97;;;16.30;99.90;;;;;;5015639;28;20442;-81
2021/06/27 03:20:41;;;;;;;0.60;0.60;;;16.40;99.90;;;;;;5016595;28;20444;-81
2021/06/27 03:23:10;;;;;;;0.50;0.40;;;16.40;99.90;;;;;;5016681;28;20478;-81
2021/06/27 03:25:37;;;;;;;0.50;0.40;;;16.40;99.90;;;;;;5017136;28;20505;-81
2021/06/27 03:28:05;;;;;;;0.50;0.40;;;16.40;99.90;;;;;;5015895;28;20852;-81
2021/06/27 03:30:32;;;;;;;0.50;0.30;;;16.40;99.90;;;;;;5016909;28;20447;-81
2021/06/27 03:32:59;;;;;;;0.50;0.30;;;16.40;99.90;;;;;;5015416;28;20488;-81
2021/06/27 03:35:27;;;;;;;0.50;0.37;;;16.40;99.90;;;;;;5016019;28;20443;-80
2021/06/27 03:37:56;;;;;;;0.50;0.50;;;16.30;99.90;;;;;;5016197;28;20444;-81
2021/06/27 03:40:24;;;;;;;0.50;0.37;;;16.30;99.90;;;;;;5016510;28;20467;-82
2021/06/27 03:42:52;;;;;;;0.50;0.30;;;16.30;99.90;;;;;;5016420;28;20494;-81
2021/06/27 03:45:18;;;;;;;0.50;0.40;;;16.40;99.90;;;;;;5016318;28;20447;-82
2021/06/27 03:47:46;;;;;;;0.50;0.40;;;16.40;99.90;;;;;;5015450;28;20837;-80
2021/06/27 03:50:13;;;;;;;0.50;0.30;;;16.40;99.90;;;;;;5016235;28;20448;-81
2021/06/27 03:52:40;;;;;;;0.50;0.30;;;16.40;99.90;;;;;;5016539;28;20468;-81
2021/06/27 03:55:08;;;;;;;0.87;0.87;;;16.50;99.90;;;;;;5015703;28;20444;-81
2021/06/27 03:57:36;;;;;;;0.50;0.40;;;16.50;99.90;;;;;;5015635;28;20439;-80
2021/06/27 04:00:05;;;;;;;1.13;1.13;;;16.50;99.90;;;;;;5016696;28;20444;-77
2021/06/27 04:02:32;;;;;;;0.50;0.40;;;16.60;99.90;;;;;;5015518;28;20479;-81
2021/06/27 04:04:59;;;;;;;0.50;0.30;;;16.70;99.90;;;;;;5015984;28;20447;-81
2021/06/27 04:07:25;;;;;;;1.43;1.43;;;16.80;99.90;;;;;;5015895;28;20804;-81
2021/06/27 04:09:52;;;;;;;1.83;1.73;;;16.90;99.90;;;;;;5016205;28;20451;-81
2021/06/27 04:12:19;;;;;;;0.50;0.40;;;16.90;99.90;;;;;;5016235;28;20478;-80
2021/06/27 04:14:47;;;;;;;0.50;0.30;;;17.00;99.90;;;;;;5015549;28;20445;-80
2021/06/27 04:17:17;;;;;;;0.50;0.40;;;17.10;99.90;;;;;;5012939;28;20446;-80
2021/06/27 04:19:44;;;;;;;0.50;0.40;;;17.20;99.90;;;;;;5012629;28;20427;-80
2021/06/27 04:22:11;;;;;;;0.50;0.40;;;17.30;99.90;;;;;;5012735;28;20459;-81
2021/06/27 04:24:38;;;;;;;9.10;3.13;;;17.40;99.90;;;;;;5012828;28;20442;-79
2021/06/27 04:27:05;;;;;;;0.57;0.37;;;17.50;99.90;;;;;;5013031;28;20450;-80
2021/06/27 04:29:32;;;;;;;0.50;0.40;;;17.60;99.90;;;;;;5013132;28;20475;-80
2021/06/27 04:32:00;;;;;;;0.50;0.30;;;17.60;99.90;;;;;;5007890;28;20474;-80
2021/06/27 04:34:27;;;;;;;0.50;0.40;;;17.70;99.90;;;;;;5013245;28;20444;-80
2021/06/27 04:36:54;;;;;;;0.50;0.40;;;17.80;99.90;;;;;;5013326;28;20457;-80
2021/06/27 04:39:20;;;;;;;1.17;0.60;;;17.90;99.90;;;;;;5014885;28;20441;-78
2021/06/27 04:41:48;;;;;;;2.00;1.90;;;17.90;99.90;;;;;;5012782;28;20457;-81
2021/06/27 04:44:15;;;;;;;0.63;0.60;;;17.90;99.90;;;;;;5013993;28;20497;-81
2021/06/27 04:46:42;;;;;;;0.50;0.40;;;18.00;99.90;;;;;;5012962;28;20440;-82
2021/06/27 04:49:12;;;;;;;0.50;0.30;;;18.00;99.90;;;;;;5016528;28;20476;-81
2021/06/27 04:51:40;;;;;;;0.50;0.40;;;18.10;99.90;;;;;;5017411;28;20459;-80
2021/06/27 04:54:07;;;;;;;0.60;0.60;;;18.10;99.90;;;;;;5017713;28;20452;-80
2021/06/27 04:56:34;;;;;;;0.50;0.30;;;18.20;99.90;;;;;;5016712;28;20455;-80
2021/06/27 04:59:01;;;;;;;1.27;1.27;;;18.20;99.90;;;;;;5017559;28;20440;-80
2021/06/27 05:01:27;;;;;;;0.60;0.57;;;18.30;99.90;;;;;;5016136;28;20464;-80
2021/06/27 05:03:54;;;;;;;0.80;0.80;;;18.30;99.90;;;;;;5012204;28;20978;-80
2021/06/27 05:06:22;;;;;;;0.50;0.30;;;18.30;99.90;;;;;;5016876;28;20444;-80
2021/06/27 05:08:49;;;;;;;5.13;1.07;;;18.40;99.90;;;;;;5017317;28;20481;-80
2021/06/27 05:11:15;;;;;;;1.47;1.37;;;18.40;99.90;;;;;;5016244;28;20445;-79
2021/06/27 05:13:42;;;;;;;0.50;0.40;;;18.40;99.90;;;;;;5017508;28;20462;-80
2021/06/27 05:16:09;;;;;;;0.50;0.30;;;18.50;99.90;;;;;;5017250;28;20445;-81
2021/06/27 05:18:35;;;;;;;0.50;0.30;;;18.60;99.90;;;;;;5016084;28;20445;-80
2021/06/27 05:21:02;;;;;;;0.50;0.40;;;18.70;99.90;;;;;;5017260;28;20457;-80
2021/06/27 05:23:30;;;;;;;0.50;0.30;;;18.80;99.90;;;;;;5017576;28;20497;-81
2021/06/27 05:25:57;;;;;;;0.50;0.40;;;18.90;99.90;;;;;;5017438;28;20960;-82
2021/06/27 05:28:24;;;;;;;0.50;0.30;;;18.90;99.90;;;;;;5016521;28;20520;-80
2021/06/27 05:30:51;;;;;;;0.70;0.70;;;18.90;99.90;;;;;;5017402;28;20941;-80
2021/06/27 05:33:17;;;;;;;0.50;0.30;;;19.00;99.90;;;;;;5011060;28;20471;-80
2021/06/27 05:35:44;;;;;;;0.50;0.30;;;19.00;99.90;;;;;;5017525;28;20442;-80
2021/06/27 05:38:11;;;;;;;0.50;0.30;;;19.10;99.90;;;;;;5017192;28;20436;-81
2021/06/27 05:40:39;;;;;;;0.50;0.30;;;19.20;99.90;;;;;;5016553;28;20442;-81
2021/06/27 05:43:06;;;;;;;0.50;0.30;;;19.40;99.90;;;;;;5017270;28;20498;-80
2021/06/27 05:45:33;;;;;;;0.50;0.30;;;19.40;99.90;;;;;;5017069;28;20496;-80
2021/06/27 05:48:00;;;;;;;0.50;0.30;;;19.50;99.90;;;;;;5016245;28;20474;-80
2021/06/27 05:50:26;;;;;;;0.90;0.80;;;19.50;99.90;;;;;;5016632;28;20454;-80
2021/06/27 05:52:53;;;;;;;0.50;0.30;;;19.50;99.90;;;;;;5017010;28;20462;-82
2021/06/27 05:55:20;;;;;;;0.50;0.30;;;19.60;99.90;;;;;;5017755;28;20437;-81
2021/06/27 05:57:48;;;;;;;0.50;0.40;;;19.60;99.90;;;;;;5017367;28;20467;-82
2021/06/27 06:00:15;;;;;;;0.60;0.50;;;19.70;99.90;;;;;;5017661;28;20441;-81
2021/06/27 06:02:42;;;;;;;0.50;0.40;;;19.80;99.90;;;;;;5011117;28;20833;-84
2021/06/27 06:05:10;;;;;;;0.90;0.90;;;19.90;99.90;;;;;;5018376;28;20437;-81
2021/06/27 06:07:36;;;;;;;0.50;0.40;;;20.00;99.90;;;;;;5016129;28;20460;-81
2021/06/27 06:10:04;;;;;;;0.50;0.40;;;20.10;99.90;;;;;;5017560;28;20488;-81
2021/06/27 06:12:30;;;;;;;0.50;0.30;;;20.30;99.90;;;;;;5018338;28;20470;-82
2021/06/27 06:14:59;;;;;;;0.50;0.37;;;20.40;99.90;;;;;;5017059;28;20438;-82
2021/06/27 06:17:25;;;;;;;0.73;0.73;;;20.50;99.90;;;;;;5017390;28;20435;-81
2021/06/27 06:19:53;;;;;;;2.67;2.57;;;20.50;99.90;;;;;;5017395;28;20439;-81
2021/06/27 06:22:20;;;;;;;0.60;0.60;;;20.70;99.90;;;;;;5017657;28;20451;-81
2021/06/27 06:24:47;;;;;;;0.50;0.30;;;21.00;99.90;;;;;;5017803;28;20439;-82
2021/06/27 06:27:15;;;;;;;0.50;0.40;;;21.30;99.90;;;;;;5017349;28;20439;-80
2021/06/27 06:29:42;;;;;;;0.50;0.30;;;21.50;99.90;;;;;;5002815;28;20478;-84
2021/06/27 06:32:10;;;;;;;0.60;0.40;;;21.60;99.90;;;;;;5011245;28;20483;-81
2021/06/27 06:34:37;;;;;;;0.50;0.40;;;21.80;99.90;;;;;;5014156;28;20448;-81
2021/06/27 06:37:04;;;;;;;0.50;0.30;;;21.90;99.90;;;;;;5015363;28;20478;-83
2021/06/27 06:39:31;;;;;;;0.50;0.30;;;22.10;99.90;;;;;;5015849;28;20427;-82
2021/06/27 06:41:57;;;;;;;0.50;0.30;;;22.80;99.90;;;;;;5016579;28;20463;-81
2021/06/27 06:44:24;;;;;;;0.50;0.40;;;24.10;99.90;;;;;;5017279;28;20434;-81
2021/06/27 06:46:51;;;;;;;0.60;0.50;;;25.70;99.90;;;;;;5010467;28;20459;-83
2021/06/27 06:49:19;;;;;;;0.50;0.30;;;26.90;99.90;;;;;;5013711;28;20482;-81
2021/06/27 06:51:46;;;;;;;0.50;0.30;;;28.00;99.90;;;;;;5016246;28;20463;-81
2021/06/27 06:54:12;;;;;;;0.50;0.30;;;28.80;99.90;;;;;;5015619;28;20453;-80
2021/06/27 06:56:39;;;;;;;0.50;0.30;;;29.60;99.90;;;;;;5015513;28;20447;-81
2021/06/27 06:59:06;;;;;;;0.50;0.40;;;30.20;97.20;;;;;;5016258;28;20439;-80
2021/06/27 07:01:32;;;;;;;0.60;0.50;;;31.00;92.80;;;;;;5015175;28;20485;-79
2021/06/27 07:03:59;;;;;;;0.50;0.40;;;32.30;90.40;;;;;;5014537;28;20962;-79
2021/06/27 07:06:27;;;;;;;0.50;0.30;;;33.00;82.60;;;;;;5014950;28;20497;-81
2021/06/27 07:08:54;;;;;;;0.50;0.40;;;33.70;77.70;;;;;;5011872;28;20479;-79
2021/06/27 07:11:20;;;;;;;0.50;0.30;;;33.40;71.90;;;;;;5014091;28;20816;-79
2021/06/27 07:13:47;;;;;;;7.60;1.10;;;33.00;75.20;;;;;;5014928;28;20439;-79
2021/06/27 07:16:14;;;;;;;0.50;0.30;;;33.00;72.50;;;;;;5013782;28;20816;-79
2021/06/27 07:18:40;;;;;;;0.40;0.30;;;32.40;75.30;;;;;;5013652;28;20438;-81
2021/06/27 07:21:09;;;;;;;0.40;0.33;;;32.50;78.40;;;;;;5016654;28;20450;-80
2021/06/27 07:23:37;;;;;;;0.40;0.30;;;33.00;78.50;;;;;;5015304;28;20442;-79
2021/06/27 07:26:04;;;;;;;0.50;0.30;;;33.70;72.10;;;;;;5015685;28;20435;-80
2021/06/27 07:28:31;;;;;;;0.40;0.30;;;34.30;71.80;;;;;;5015260;28;20435;-79
2021/06/27 07:30:59;;;;;;;0.40;0.30;;;34.20;68.00;;;;;;5014832;28;20449;-79
2021/06/27 07:33:25;;;;;;;0.50;0.30;;;34.00;69.40;;;;;;5014287;28;21014;-79
2021/06/27 07:35:52;;;;;;;0.40;0.30;;;33.60;69.00;;;;;;5014405;28;20971;-78
2021/06/27 07:38:19;;;;;;;0.40;0.30;;;33.90;69.40;;;;;;5010357;28;20454;-77
2021/06/27 07:40:47;;;;;;;0.50;0.47;;;34.30;67.50;;;;;;5013729;28;20475;-78
2021/06/27 07:43:13;;;;;;;0.40;0.30;;;34.60;67.50;;;;;;5012367;28;20458;-76
2021/06/27 07:45:42;;;;;;;0.40;0.30;;;34.60;67.00;;;;;;5008981;28;20450;-78
2021/06/27 07:48:09;;;;;;;0.40;0.30;;;35.10;65.40;;;;;;5013779;28;20450;-80
2021/06/27 07:50:36;;;;;;;9.17;3.20;;;35.90;66.90;;;;;;5014454;28;20442;-79
2021/06/27 07:53:03;;;;;;;1.27;1.07;;;37.10;61.90;;;;;;5014021;28;20856;-80
2021/06/27 07:55:30;;;;;;;0.40;0.30;;;37.80;59.20;;;;;;5014931;28;20447;-79
2021/06/27 07:57:58;;;;;;;0.40;0.30;;;37.20;58.30;;;;;;5013247;28;20518;-79
2021/06/27 08:00:25;;;;;;;1.07;0.60;;;37.30;58.40;;;;;;5011644;28;20471;-77
2021/06/27 08:02:52;;;;;;;0.40;0.30;;;37.10;57.90;;;;;;5014505;28;20836;-79
2021/06/27 08:05:19;;;;;;;0.40;0.30;;;37.80;58.80;;;;;;5014921;28;20925;-80
2021/06/27 08:07:46;;;;;;;0.80;0.80;;;38.40;57.00;;;;;;5015585;28;20451;-79
2021/06/27 08:10:12;;;;;;;0.40;0.30;;;38.20;55.90;;;;;;5015121;28;20446;-80
2021/06/27 08:12:40;;;;;;;0.40;0.30;;;37.40;56.40;;;;;;5014037;28;20463;-78
2021/06/27 08:15:17;;;;;;;0.40;0.30;;;37.10;57.20;;;;;;5014698;28;20446;-79
2021/06/27 08:17:44;;;;;;;0.40;0.30;;;37.10;58.60;;;;;;5014364;28;20489;-79
2021/06/27 08:20:12;;;;;;;0.40;0.30;;;37.20;57.40;;;;;;5014265;28;20999;-81
2021/06/27 08:22:39;;;;;;;9.00;1.47;;;37.60;58.00;;;;;;5014608;28;20467;-80
2021/06/27 08:25:07;;;;;;;0.40;0.30;;;37.90;57.20;;;;;;5015430;28;20817;-80
2021/06/27 08:27:34;;;;;;;0.50;0.50;;;38.40;58.10;;;;;;5014460;28;20447;-80
2021/06/27 08:30:00;;;;;;;1.80;1.07;;;38.80;55.80;;;;;;5009839;28;20442;-78
2021/06/27 08:32:29;;;;;;;0.50;0.40;;;38.30;56.70;;;;;;5007512;28;20478;-78
2021/06/27 08:34:56;;;;;;;0.40;0.30;;;38.70;56.70;;;;;;5012572;28;20530;-79
2021/06/27 08:37:23;;;;;;;0.73;0.73;;;38.80;56.50;;;;;;5012673;28;20435;-78
2021/06/27 08:39:49;;;;;;;0.50;0.50;;;38.20;54.70;;;;;;5005186;28;20467;-78
2021/06/27 08:42:19;;;;;;;0.40;0.30;;;38.10;55.80;;;;;;5005139;28;20489;-80
2021/06/27 08:44:46;;;;;;;0.40;0.30;;;38.30;55.90;;;;;;5012784;28;20439;-78
2021/06/27 08:47:16;;;;;;;0.40;0.30;;;38.50;56.00;;;;;;5012579;28;20442;-80
2021/06/27 08:49:46;;;;;;;0.40;0.30;;;37.70;55.80;;;;;;5012134;28;20443;-79
2021/06/27 08:52:16;;;;;;;0.40;0.30;;;37.20;56.40;;;;;;5012921;28;20526;-79
2021/06/27 08:54:44;;;;;;;0.93;0.83;;;37.00;56.70;;;;;;5009483;28;20526;-78
2021/06/27 08:57:11;;;;;;;0.40;0.30;;;36.80;56.40;;;;;;5012314;28;20439;-78
2021/06/27 08:59:37;;;;;;;0.40;0.30;;;37.30;56.80;;;;;;5008532;28;20495;-80
2021/06/27 09:02:05;;;;;;;0.87;0.87;;;38.20;56.10;;;;;;5007143;28;20463;-78
2021/06/27 09:04:34;;;;;;;0.40;0.40;;;39.00;56.10;;;;;;5012513;28;20442;-78
2021/06/27 09:07:26;;;;;;;0.40;0.30;;;38.40;54.20;;;;;;5011739;28;20475;-80
2021/06/27 09:09:53;;;;;;;0.40;0.30;;;38.50;57.40;;;;;;5007664;28;20446;-77
2021/06/27 09:12:20;;;;;;;0.40;0.30;;;39.20;57.60;;;;;;5013453;28;21003;-78
2021/06/27 09:14:47;;;;;;;0.70;0.70;;;39.20;54.60;;;;;;5010078;28;20445;-78
2021/06/27 09:17:17;;;;;;;0.40;0.30;;;38.60;54.20;;;;;;5011896;28;20449;-80
2021/06/27 09:19:58;;;;;;;0.40;0.30;;;38.20;56.50;;;;;;5010778;28;20911;-78
2021/06/27 09:22:28;;;;;;;0.63;0.63;;;38.20;56.80;;;;;;5012079;28;20521;-79
2021/06/27 09:25:10;;;;;;;0.40;0.40;;;38.50;56.60;;;;;;5011972;28;20449;-79
2021/06/27 09:27:37;;;;;;;0.40;0.30;;;38.90;54.90;;;;;;5005473;28;20431;-79
2021/06/27 09:30:14;;;;;;;0.80;0.80;;;38.60;53.90;;;;;;5012846;28;20435;-78
2021/06/27 09:32:51;;;;;;;0.90;0.70;;;37.70;54.20;;;;;;5012638;28;20462;-78
2021/06/27 09:35:36;;;;;;;0.40;0.30;;;38.10;57.10;;;;;;5015264;28;20435;-79
2021/06/27 09:38:24;;;;;;;0.40;0.30;;;39.20;54.70;;;;;;5016088;28;20427;-77
2021/06/27 09:40:53;;;;;;;0.80;0.80;;;40.50;56.40;;;;;;5016188;28;20479;-79
2021/06/27 09:43:21;;;;;;;0.40;0.30;;;41.80;52.40;;;;;;5017075;28;20461;-80
2021/06/27 09:45:50;;;;;;;0.57;0.57;;;42.50;51.30;;;;;;5016823;28;21022;-79
2021/06/27 09:48:17;;;;;;;0.40;0.40;;;42.50;48.90;;;;;;5016289;28;20964;-79
2021/06/27 09:50:44;;;;;;;0.40;0.30;;;42.10;49.30;;;;;;5015961;28;20446;-79
2021/06/27 09:53:31;;;;;;;0.50;0.50;;;41.40;51.30;;;;;;5016222;28;20462;-81
2021/06/27 09:55:59;;;;;;;0.50;0.40;;;42.00;52.70;;;;;;5016554;28;20446;-80
2021/06/27 09:58:26;;;;;;;0.40;0.30;;;42.90;50.70;;;;;;5015879;28;20816;-80
2021/06/27 10:00:53;;;;;;;0.40;0.30;;;42.70;51.10;;;;;;5015742;28;20475;-79
2021/06/27 10:03:20;;;;;;;0.40;0.30;;;42.30;48.80;;;;;;5015761;28;20478;-80
2021/06/27 10:05:46;;;;;;;0.40;0.30;;;42.40;49.10;;;;;;5015880;28;20446;-79
2021/06/27 10:08:27;;;;;;;0.40;0.30;;;41.90;49.30;;;;;;5015077;28;20533;-78
2021/06/27 10:11:12;;;;;;;0.40;0.30;;;40.00;49.20;;;;;;5015633;28;20443;-79
2021/06/27 10:13:40;;;;;;;0.40;0.30;;;39.20;53.70;;;;;;5015645;28;20437;-79
2021/06/27 10:16:07;;;;;;;0.40;0.30;;;38.70;52.20;;;;;;5015410;28;20809;-79
2021/06/27 10:18:34;;;;;;;0.60;0.60;;;38.00;53.50;;;;;;5014778;28;20473;-80
2021/06/27 10:21:01;;;;;;;0.50;0.40;;;37.60;55.20;;;;;;5015128;28;20474;-79
2021/06/27 10:23:28;;;;;;;0.40;0.30;;;37.90;53.90;;;;;;5015177;28;20470;-80
2021/06/27 10:25:55;;;;;;;0.40;0.30;;;37.80;54.50;;;;;;5015018;28;20443;-79
2021/06/27 10:28:23;;;;;;;0.40;0.30;;;38.40;55.80;;;;;;5015051;28;20439;-77
2021/06/27 10:30:51;;;;;;;0.40;0.30;;;38.20;52.50;;;;;;5014905;28;20952;-78
2021/06/27 10:33:20;;;;;;;0.50;0.50;;;36.80;52.90;;;;;;5014154;28;20568;-79
2021/06/27 10:35:51;;;;;;;0.40;0.30;;;36.30;57.20;;;;;;5015215;28;20999;-80
2021/06/27 10:38:22;;;;;;;0.40;0.30;;;36.60;56.50;;;;;;5014720;28;20462;-81
2021/06/27 10:40:51;;;;;;;0.40;0.30;;;36.60;56.20;;;;;;5015115;28;20565;-80
2021/06/27 10:43:17;;;;;;;0.87;0.87;;;36.20;57.10;;;;;;5014522;28;20969;-79
2021/06/27 10:46:02;;;;;;;0.40;0.30;;;36.40;57.10;;;;;;5014401;28;20431;-79
2021/06/27 10:48:39;;;;;;;0.60;0.60;;;35.70;55.80;;;;;;5014249;28;20443;-78
2021/06/27 10:51:09;;;;;;;0.40;0.30;;;35.50;57.90;;;;;;5014106;28;20944;-79
2021/06/27 10:54:14;;;;;;;0.40;0.30;;;35.20;56.60;;;;;;5014605;28;20455;-79
2021/06/27 10:57:03;;;;;;;0.70;0.67;;;35.20;57.20;;;;;;5013434;28;20427;-78
2021/06/27 10:59:58;;;;;;;0.40;0.30;;;34.10;56.00;;;;;;5014180;28;20443;-80
2021/06/27 11:02:38;;;;;;;0.50;0.40;;;33.70;59.60;;;;;;5013903;28;20836;-78
2021/06/27 11:05:46;;;;;;;0.50;0.30;;;33.50;59.70;;;;;;5013206;28;20529;-78
2021/06/27 11:08:33;;;;;;;0.53;0.53;;;33.40;61.00;;;;;;5013700;28;20525;-78
2021/06/27 11:11:02;;;;;;;8.10;1.73;;;33.60;57.90;;;;;;5013484;28;20439;-78
2021/06/27 11:13:29;;;;;;;0.50;0.30;;;33.70;57.60;;;;;;5013134;28;20463;-79
2021/06/27 11:16:08;;;;;;;0.60;0.40;;;33.40;57.80;;;;;;5014117;28;20812;-78
2021/06/27 11:18:38;;;;;;;0.50;0.33;;;33.00;57.30;;;;;;5013464;28;20442;-78
2021/06/27 11:21:14;;;;;;;0.50;0.30;;;32.50;58.30;;;;;;5013796;28;20861;-80
2021/06/27 11:24:03;;;;;;;0.50;0.37;;;31.90;59.80;;;;;;5013230;28;20442;-78
2021/06/27 11:26:56;;;;;;;0.50;0.30;;;30.90;60.80;;;;;;5008170;28;20868;-77
2021/06/27 11:29:43;;;;;;;0.50;0.30;;;30.30;61.90;;;;;;5013546;28;20435;-75
2021/06/27 11:32:44;;;;;;;0.50;0.30;;;30.50;64.20;;;;;;5013013;28;20470;-79
2021/06/27 11:35:32;;;;;;;0.50;0.30;;;30.80;63.30;;;;;;5013025;28;20974;-78
2021/06/27 11:37:58;;;;;;;0.80;0.60;;;31.10;63.40;;;;;;5012959;28;20450;-79
2021/06/27 11:40:41;;;;;;;0.50;0.30;;;31.50;63.10;;;;;;5012585;28;20478;-75
2021/06/27 11:43:07;;;;;;;0.57;0.50;;;32.70;61.50;;;;;;5013301;28;20485;-79
2021/06/27 11:45:52;;;;;;;0.40;0.30;;;33.30;59.10;;;;;;5012351;28;20443;-79
2021/06/27 11:48:21;;;;;;;0.50;0.30;;;34.30;57.70;;;;;;5013528;28;20431;-80
2021/06/27 11:50:51;;;;;;;0.40;0.30;;;35.60;58.20;;;;;;5013273;28;20434;-79
2021/06/27 11:53:25;;;;;;;0.40;0.30;;;36.70;53.40;;;;;;5014183;28;20463;-79
2021/06/27 11:56:08;;;;;;;0.40;0.40;;;37.90;52.30;;;;;;5018038;28;20443;-79
2021/06/27 11:58:35;;;;;;;0.40;0.30;;;39.00;51.90;;;;;;5012717;28;20438;-78
2021/06/27 12:01:07;;;;;;;0.40;0.30;;;38.40;51.00;;;;;;5012867;28;20481;-78
2021/06/27 12:03:34;;;;;;;0.40;0.30;;;38.30;52.00;;;;;;5012946;28;20459;-80
2021/06/27 12:06:04;;;;;;;0.50;0.43;;;38.70;50.50;;;;;;5012781;28;20442;-79
2021/06/27 12:08:32;;;;;;;0.40;0.30;;;38.60;51.10;;;;;;5013180;28;20451;-79
2021/06/27 12:11:01;;;;;;;0.43;0.43;;;38.80;49.90;;;;;;5013154;28;20474;-79
2021/06/27 12:13:29;;;;;;;0.40;0.30;;;37.80;50.60;;;;;;5013191;28;20538;-78
2021/06/27 12:15:58;;;;;;;0.40;0.30;;;36.20;52.60;;;;;;5013013;28;20861;-79
2021/06/27 12:18:26;;;;;;;0.40;0.30;;;35.40;56.70;;;;;;5012840;28;20550;-79
2021/06/27 12:20:54;;;;;;;0.40;0.30;;;34.80;54.50;;;;;;5012461;28;20475;-79
2021/06/27 12:23:28;;;;;;;0.40;0.30;;;35.10;56.70;;;;;;5012950;28;20478;-78
2021/06/27 12:26:00;;;;;;;0.60;0.60;;;35.80;54.40;;;;;;5011982;28;20450;-79
2021/06/27 12:28:35;;;;;;;0.40;0.30;;;35.80;54.50;;;;;;5012982;28;20427;-78
2021/06/27 12:31:08;;;;;;;0.40;0.30;;;35.40;54.60;;;;;;5012043;28;20430;-78
2021/06/27 12:33:37;;;;;;;0.50;0.40;;;34.80;55.00;;;;;;5011930;28;20481;-78
2021/06/27 12:36:06;;;;;;;0.40;0.30;;;34.60;55.60;;;;;;5011744;28;20488;-78
2021/06/27 12:38:35;;;;;;;0.40;0.30;;;34.90;56.30;;;;;;5012081;28;20449;-79
2021/06/27 12:41:03;;;;;;;0.50;0.30;;;34.70;55.90;;;;;;5012288;28;20487;-78
2021/06/27 12:43:39;;;;;;;0.50;0.30;;;34.50;57.50;;;;;;5012426;28;20497;-78
2021/06/27 12:46:25;;;;;;;0.40;0.30;;;34.00;57.70;;;;;;5012225;28;20796;-79
2021/06/27 12:49:06;;;;;;;0.50;0.30;;;33.30;57.60;;;;;;5013025;28;20427;-79
2021/06/27 12:51:35;;;;;;;0.40;0.30;;;33.20;59.80;;;;;;5012654;28;20447;-78
2021/06/27 12:54:07;;;;;;;0.43;0.30;;;33.20;60.30;;;;;;5012493;28;20478;-81
2021/06/27 12:56:49;;;;;;;0.47;0.30;;;33.20;59.70;;;;;;5012513;28;20485;-79
2021/06/27 12:59:17;;;;;;;0.50;0.40;;;34.00;59.90;;;;;;5012789;28;20442;-79